sensor_id;sensor_type;location;lat;lon;timestamp;temperature;humidity
22940;DHT22;11636;52.086;5.090;2023-04-24T00:02:01;9.30;99.90
22940;DHT22;11636;52.086;5.090;2023-04-24T00:04:48;9.30;99.90
22940;DHT22;11636;52.086;5.090;2023-04-24T00:07:43;9.30;99.90
22940;DHT22;11636;52.086;5.090;2023-04-24T00:10:31;9.30;99.90
22940;DHT22;11636;52.086;5.090;2023-04-24T00:13:24;9.30;99.90
22940;DHT22;11636;52.086;5.090;2023-04-24T00:16:18;9.20;99.90
22940;DHT22;11636;52.086;5.090;2023-04-24T00:19:05;9.20;99.90
22940;DHT22;11636;52.086;5.090;2023-04-24T00:21:59;9.20;99.90
22940;DHT22;11636;52.086;5.090;2023-04-24T00:24:47;9.20;99.90
22940;DHT22;11636;52.086;5.090;2023-04-24T00:27:41;9.20;99.90
22940;DHT22;11636;52.086;5.090;2023-04-24T00:30:28;9.20;99.90
22940;DHT22;11636;52.086;5.090;2023-04-24T00:33:21;9.20;99.90
22940;DHT22;11636;52.086;5.090;2023-04-24T00:36:15;9.20;99.90
22940;DHT22;11636;52.086;5.090;2023-04-24T00:39:09;9.20;99.90
22940;DHT22;11636;52.086;5.090;2023-04-24T00:42:03;9.20;99.90
22940;DHT22;11636;52.086;5.090;2023-04-24T00:45:00;9.20;99.90
22940;DHT22;11636;52.086;5.090;2023-04-24T00:47:52;9.20;99.90
22940;DHT22;11636;52.086;5.090;2023-04-24T00:50:46;9.20;99.90
22940;DHT22;11636;52.086;5.090;2023-04-24T00:53:33;9.20;99.90
22940;DHT22;11636;52.086;5.090;2023-04-24T00:56:27;9.20;99.90
22940;DHT22;11636;52.086;5.090;2023-04-24T00:59:16;9.20;99.90
22940;DHT22;11636;52.086;5.090;2023-04-24T01:02:11;9.30;99.90
22940;DHT22;11636;52.086;5.090;2023-04-24T01:05:05;9.30;99.90
22940;DHT22;11636;52.086;5.090;2023-04-24T01:07:59;9.30;99.90
22940;DHT22;11636;52.086;5.090;2023-04-24T01:10:53;9.30;99.90
22940;DHT22;11636;52.086;5.090;2023-04-24T01:13:40;9.30;99.90
22940;DHT22;11636;52.086;5.090;2023-04-24T01:16:33;9.30;99.90
22940;DHT22;11636;52.086;5.090;2023-04-24T01:19:28;9.30;99.90
22940;DHT22;11636;52.086;5.090;2023-04-24T01:22:15;9.30;99.90
22940;DHT22;11636;52.086;5.090;2023-04-24T01:25:09;9.30;99.90
22940;DHT22;11636;52.086;5.090;2023-04-24T01:27:57;9.30;99.90
22940;DHT22;11636;52.086;5.090;2023-04-24T01:30:51;9.30;99.90
22940;DHT22;11636;52.086;5.090;2023-04-24T01:33:38;9.30;99.90
22940;DHT22;11636;52.086;5.090;2023-04-24T01:36:33;9.30;99.90
22940;DHT22;11636;52.086;5.090;2023-04-24T01:39:27;9.30;99.90
22940;DHT22;11636;52.086;5.090;2023-04-24T01:42:16;9.30;99.90
22940;DHT22;11636;52.086;5.090;2023-04-24T01:45:10;9.30;99.90
22940;DHT22;11636;52.086;5.090;2023-04-24T01:47:58;9.30;99.90
22940;DHT22;11636;52.086;5.090;2023-04-24T01:50:53;9.30;99.90
22940;DHT22;11636;52.086;5.090;2023-04-24T01:53:47;9.30;99.90
22940;DHT22;11636;52.086;5.090;2023-04-24T01:56:42;9.30;99.90
22940;DHT22;11636;52.086;5.090;2023-04-24T01:59:30;9.30;99.90
22940;DHT22;11636;52.086;5.090;2023-04-24T02:02:24;9.30;99.90
22940;DHT22;11636;52.086;5.090;2023-04-24T02:05:14;9.30;99.90
22940;DHT22;11636;52.086;5.090;2023-04-24T02:08:08;9.30;99.90
22940;DHT22;11636;52.086;5.090;2023-04-24T02:11:02;9.30;99.90
22940;DHT22;11636;52.086;5.090;2023-04-24T02:13:49;9.30;99.90
22940;DHT22;11636;52.086;5.090;2023-04-24T02:16:44;9.20;99.90
22940;DHT22;11636;52.086;5.090;2023-04-24T02:19:31;9.20;99.90
22940;DHT22;11636;52.086;5.090;2023-04-24T02:22:25;9.20;99.90
22940;DHT22;11636;52.086;5.090;2023-04-24T02:25:19;9.20;99.90
22940;DHT22;11636;52.086;5.090;2023-04-24T02:28:06;9.20;99.90
22940;DHT22;11636;52.086;5.090;2023-04-24T02:31:06;9.20;99.90
22940;DHT22;11636;52.086;5.090;2023-04-24T02:34:07;9.20;99.90
22940;DHT22;11636;52.086;5.090;2023-04-24T02:37:01;9.20;99.90
22940;DHT22;11636;52.086;5.090;2023-04-24T02:39:48;9.20;99.90
22940;DHT22;11636;52.086;5.090;2023-04-24T02:42:42;9.20;99.90
22940;DHT22;11636;52.086;5.090;2023-04-24T02:45:29;9.20;99.90
22940;DHT22;11636;52.086;5.090;2023-04-24T02:48:23;9.20;99.90
22940;DHT22;11636;52.086;5.090;2023-04-24T02:51:17;9.20;99.90
22940;DHT22;11636;52.086;5.090;2023-04-24T02:54:04;9.20;99.90
22940;DHT22;11636;52.086;5.090;2023-04-24T02:56:58;9.20;99.90
22940;DHT22;11636;52.086;5.090;2023-04-24T02:59:45;9.20;99.90
22940;DHT22;11636;52.086;5.090;2023-04-24T03:02:39;9.20;99.90
22940;DHT22;11636;52.086;5.090;2023-04-24T03:05:26;9.20;99.90
22940;DHT22;11636;52.086;5.090;2023-04-24T03:08:21;9.20;99.90
22940;DHT22;11636;52.086;5.090;2023-04-24T03:11:15;9.20;99.90
22940;DHT22;11636;52.086;5.090;2023-04-24T03:14:09;9.20;99.90
22940;DHT22;11636;52.086;5.090;2023-04-24T03:17:03;9.20;99.90
22940;DHT22;11636;52.086;5.090;2023-04-24T03:19:50;9.10;99.90
22940;DHT22;11636;52.086;5.090;2023-04-24T03:22:44;9.10;99.90
22940;DHT22;11636;52.086;5.090;2023-04-24T03:25:38;9.10;99.90
22940;DHT22;11636;52.086;5.090;2023-04-24T03:28:25;9.00;99.90
22940;DHT22;11636;52.086;5.090;2023-04-24T03:31:20;9.00;99.90
22940;DHT22;11636;52.086;5.090;2023-04-24T03:34:14;9.00;99.90
22940;DHT22;11636;52.086;5.090;2023-04-24T03:37:08;9.00;99.90
22940;DHT22;11636;52.086;5.090;2023-04-24T03:40:02;8.90;99.90
22940;DHT22;11636;52.086;5.090;2023-04-24T03:42:49;8.90;99.90
22940;DHT22;11636;52.086;5.090;2023-04-24T03:45:43;9.00;99.90
22940;DHT22;11636;52.086;5.090;2023-04-24T03:48:30;9.00;99.90
22940;DHT22;11636;52.086;5.090;2023-04-24T03:51:24;9.00;99.90
22940;DHT22;11636;52.086;5.090;2023-04-24T03:54:11;9.00;99.90
22940;DHT22;11636;52.086;5.090;2023-04-24T03:57:05;9.00;99.90
22940;DHT22;11636;52.086;5.090;2023-04-24T03:59:52;9.00;99.90
22940;DHT22;11636;52.086;5.090;2023-04-24T04:02:47;9.00;99.90
22940;DHT22;11636;52.086;5.090;2023-04-24T04:05:42;9.10;99.90
22940;DHT22;11636;52.086;5.090;2023-04-24T04:08:36;9.00;99.90
22940;DHT22;11636;52.086;5.090;2023-04-24T04:11:23;9.00;99.90
22940;DHT22;11636;52.086;5.090;2023-04-24T04:14:17;9.00;99.90
22940;DHT22;11636;52.086;5.090;2023-04-24T04:17:11;9.00;99.90
22940;DHT22;11636;52.086;5.090;2023-04-24T04:20:05;9.00;99.90
22940;DHT22;11636;52.086;5.090;2023-04-24T04:22:56;8.90;99.90
22940;DHT22;11636;52.086;5.090;2023-04-24T04:25:50;9.00;99.90
22940;DHT22;11636;52.086;5.090;2023-04-24T04:28:38;8.90;99.90
22940;DHT22;11636;52.086;5.090;2023-04-24T04:31:32;8.90;99.90
22940;DHT22;11636;52.086;5.090;2023-04-24T04:34:19;8.90;99.90
22940;DHT22;11636;52.086;5.090;2023-04-24T04:37:13;8.90;99.90
22940;DHT22;11636;52.086;5.090;2023-04-24T04:40:07;8.90;99.90
22940;DHT22;11636;52.086;5.090;2023-04-24T04:43:05;8.90;99.90
22940;DHT22;11636;52.086;5.090;2023-04-24T04:45:59;8.90;99.90
22940;DHT22;11636;52.086;5.090;2023-04-24T04:48:47;8.90;99.90
22940;DHT22;11636;52.086;5.090;2023-04-24T04:51:41;8.90;99.90
22940;DHT22;11636;52.086;5.090;2023-04-24T04:54:29;8.80;99.90
22940;DHT22;11636;52.086;5.090;2023-04-24T04:57:23;8.90;99.90
22940;DHT22;11636;52.086;5.090;2023-04-24T05:00:10;8.80;99.90
22940;DHT22;11636;52.086;5.090;2023-04-24T05:03:05;8.70;99.90
22940;DHT22;11636;52.086;5.090;2023-04-24T05:06:06;8.60;99.90
22940;DHT22;11636;52.086;5.090;2023-04-24T05:09:00;8.50;99.90
22940;DHT22;11636;52.086;5.090;2023-04-24T05:11:47;8.50;99.90
22940;DHT22;11636;52.086;5.090;2023-04-24T05:14:41;8.40;99.90
22940;DHT22;11636;52.086;5.090;2023-04-24T05:17:35;8.40;99.90
22940;DHT22;11636;52.086;5.090;2023-04-24T05:20:29;8.40;99.90
22940;DHT22;11636;52.086;5.090;2023-04-24T05:23:16;8.40;99.90
22940;DHT22;11636;52.086;5.090;2023-04-24T05:26:10;8.40;99.90
22940;DHT22;11636;52.086;5.090;2023-04-24T05:29:04;8.40;99.90
22940;DHT22;11636;52.086;5.090;2023-04-24T05:31:58;8.40;99.90
22940;DHT22;11636;52.086;5.090;2023-04-24T05:34:52;8.40;99.90
22940;DHT22;11636;52.086;5.090;2023-04-24T05:37:39;8.40;99.90
22940;DHT22;11636;52.086;5.090;2023-04-24T05:40:33;8.40;99.90
22940;DHT22;11636;52.086;5.090;2023-04-24T05:43:27;8.40;99.90
22940;DHT22;11636;52.086;5.090;2023-04-24T05:46:14;8.40;99.90
22940;DHT22;11636;52.086;5.090;2023-04-24T05:49:08;8.50;99.90
22940;DHT22;11636;52.086;5.090;2023-04-24T05:51:55;8.50;99.90
22940;DHT22;11636;52.086;5.090;2023-04-24T05:54:49;8.50;99.90
22940;DHT22;11636;52.086;5.090;2023-04-24T05:57:36;8.50;99.90
22940;DHT22;11636;52.086;5.090;2023-04-24T06:00:30;8.60;99.90
22940;DHT22;11636;52.086;5.090;2023-04-24T06:03:18;8.50;99.90
22940;DHT22;11636;52.086;5.090;2023-04-24T06:06:11;8.60;99.90
22940;DHT22;11636;52.086;5.090;2023-04-24T06:09:05;8.60;99.90
22940;DHT22;11636;52.086;5.090;2023-04-24T06:11:59;8.60;99.90
22940;DHT22;11636;52.086;5.090;2023-04-24T06:14:53;8.60;99.90
22940;DHT22;11636;52.086;5.090;2023-04-24T06:17:42;8.60;99.90
22940;DHT22;11636;52.086;5.090;2023-04-24T06:20:36;8.50;99.90
22940;DHT22;11636;52.086;5.090;2023-04-24T06:23:23;8.50;99.90
22940;DHT22;11636;52.086;5.090;2023-04-24T06:26:17;8.50;99.90
22940;DHT22;11636;52.086;5.090;2023-04-24T06:29:04;8.40;99.90
22940;DHT22;11636;52.086;5.090;2023-04-24T06:31:58;8.40;99.90
22940;DHT22;11636;52.086;5.090;2023-04-24T06:34:45;8.40;99.90
22940;DHT22;11636;52.086;5.090;2023-04-24T06:37:40;8.30;99.90
22940;DHT22;11636;52.086;5.090;2023-04-24T06:40:28;8.20;99.90
22940;DHT22;11636;52.086;5.090;2023-04-24T06:43:21;8.30;99.90
22940;DHT22;11636;52.086;5.090;2023-04-24T06:46:08;8.30;99.90
22940;DHT22;11636;52.086;5.090;2023-04-24T06:49:02;8.20;99.90
22940;DHT22;11636;52.086;5.090;2023-04-24T06:51:49;8.20;99.90
22940;DHT22;11636;52.086;5.090;2023-04-24T06:54:43;8.10;99.90
22940;DHT22;11636;52.086;5.090;2023-04-24T06:57:37;8.10;99.90
22940;DHT22;11636;52.086;5.090;2023-04-24T07:00:24;8.10;99.90
22940;DHT22;11636;52.086;5.090;2023-04-24T07:03:18;8.10;99.90
22940;DHT22;11636;52.086;5.090;2023-04-24T07:06:06;8.10;99.90
22940;DHT22;11636;52.086;5.090;2023-04-24T07:09:00;8.10;99.90
22940;DHT22;11636;52.086;5.090;2023-04-24T07:11:48;8.10;99.90
22940;DHT22;11636;52.086;5.090;2023-04-24T07:14:41;8.10;99.90
22940;DHT22;11636;52.086;5.090;2023-04-24T07:17:35;8.10;99.90
22940;DHT22;11636;52.086;5.090;2023-04-24T07:20:23;8.10;99.90
22940;DHT22;11636;52.086;5.090;2023-04-24T07:23:17;8.10;99.90
22940;DHT22;11636;52.086;5.090;2023-04-24T07:26:04;8.10;99.90
22940;DHT22;11636;52.086;5.090;2023-04-24T07:28:58;8.10;99.90
22940;DHT22;11636;52.086;5.090;2023-04-24T07:31:46;8.10;99.90
22940;DHT22;11636;52.086;5.090;2023-04-24T07:34:39;8.20;99.90
22940;DHT22;11636;52.086;5.090;2023-04-24T07:37:28;8.20;99.90
22940;DHT22;11636;52.086;5.090;2023-04-24T07:40:22;8.10;99.90
22940;DHT22;11636;52.086;5.090;2023-04-24T07:43:10;8.10;99.90
22940;DHT22;11636;52.086;5.090;2023-04-24T07:46:04;8.10;99.90
22940;DHT22;11636;52.086;5.090;2023-04-24T07:48:54;8.20;99.90
22940;DHT22;11636;52.086;5.090;2023-04-24T07:52:00;8.20;99.90
22940;DHT22;11636;52.086;5.090;2023-04-24T07:54:55;8.30;99.90
22940;DHT22;11636;52.086;5.090;2023-04-24T07:57:51;8.30;99.90
22940;DHT22;11636;52.086;5.090;2023-04-24T08:00:38;8.30;99.90
22940;DHT22;11636;52.086;5.090;2023-04-24T08:03:32;8.40;99.90
22940;DHT22;11636;52.086;5.090;2023-04-24T08:06:27;8.40;99.90
22940;DHT22;11636;52.086;5.090;2023-04-24T08:09:23;8.40;99.90
22940;DHT22;11636;52.086;5.090;2023-04-24T08:12:13;8.50;99.90
22940;DHT22;11636;52.086;5.090;2023-04-24T08:15:08;8.50;99.90
22940;DHT22;11636;52.086;5.090;2023-04-24T08:17:55;8.60;99.90
22940;DHT22;11636;52.086;5.090;2023-04-24T08:20:49;8.60;99.90
22940;DHT22;11636;52.086;5.090;2023-04-24T08:23:36;8.60;99.90
22940;DHT22;11636;52.086;5.090;2023-04-24T08:26:30;8.50;99.90
22940;DHT22;11636;52.086;5.090;2023-04-24T08:29:32;8.60;99.90
22940;DHT22;11636;52.086;5.090;2023-04-24T08:32:26;8.70;99.90
22940;DHT22;11636;52.086;5.090;2023-04-24T08:35:22;8.80;99.90
22940;DHT22;11636;52.086;5.090;2023-04-24T08:38:16;8.90;99.90
22940;DHT22;11636;52.086;5.090;2023-04-24T08:41:04;9.00;99.90
22940;DHT22;11636;52.086;5.090;2023-04-24T08:43:58;8.90;99.90
22940;DHT22;11636;52.086;5.090;2023-04-24T08:46:47;9.00;99.90
22940;DHT22;11636;52.086;5.090;2023-04-24T08:49:43;9.00;99.90
22940;DHT22;11636;52.086;5.090;2023-04-24T08:52:36;9.00;99.90
22940;DHT22;11636;52.086;5.090;2023-04-24T08:55:30;9.00;99.90
22940;DHT22;11636;52.086;5.090;2023-04-24T08:58:25;9.00;99.90
22940;DHT22;11636;52.086;5.090;2023-04-24T09:01:14;9.00;99.90
22940;DHT22;11636;52.086;5.090;2023-04-24T09:04:09;9.00;99.90
22940;DHT22;11636;52.086;5.090;2023-04-24T09:07:08;8.90;99.90
22940;DHT22;11636;52.086;5.090;2023-04-24T09:09:56;8.90;99.90
22940;DHT22;11636;52.086;5.090;2023-04-24T09:12:51;8.90;99.90
22940;DHT22;11636;52.086;5.090;2023-04-24T09:15:39;9.10;99.90
22940;DHT22;11636;52.086;5.090;2023-04-24T09:18:33;9.20;99.90
22940;DHT22;11636;52.086;5.090;2023-04-24T09:21:33;9.40;99.90
22940;DHT22;11636;52.086;5.090;2023-04-24T09:24:26;9.60;99.90
22940;DHT22;11636;52.086;5.090;2023-04-24T09:27:23;9.60;99.90
22940;DHT22;11636;52.086;5.090;2023-04-24T09:30:11;9.70;99.90
22940;DHT22;11636;52.086;5.090;2023-04-24T09:33:12;9.60;99.90
22940;DHT22;11636;52.086;5.090;2023-04-24T09:35:59;9.60;99.90
22940;DHT22;11636;52.086;5.090;2023-04-24T09:38:57;9.60;99.90
22940;DHT22;11636;52.086;5.090;2023-04-24T09:41:52;9.60;99.90
22940;DHT22;11636;52.086;5.090;2023-04-24T09:44:49;9.60;99.90
22940;DHT22;11636;52.086;5.090;2023-04-24T09:48:01;9.60;99.90
22940;DHT22;11636;52.086;5.090;2023-04-24T09:50:54;9.50;99.90
22940;DHT22;11636;52.086;5.090;2023-04-24T09:53:46;9.40;99.90
22940;DHT22;11636;52.086;5.090;2023-04-24T09:56:42;9.50;99.90
22940;DHT22;11636;52.086;5.090;2023-04-24T09:59:42;9.40;99.90
22940;DHT22;11636;52.086;5.090;2023-04-24T10:02:37;9.30;99.90
22940;DHT22;11636;52.086;5.090;2023-04-24T10:05:35;9.20;99.90
22940;DHT22;11636;52.086;5.090;2023-04-24T10:08:36;9.10;99.90
22940;DHT22;11636;52.086;5.090;2023-04-24T10:11:27;9.00;99.90
22940;DHT22;11636;52.086;5.090;2023-04-24T10:14:22;9.00;99.90
22940;DHT22;11636;52.086;5.090;2023-04-24T10:17:17;9.10;99.90
22940;DHT22;11636;52.086;5.090;2023-04-24T10:20:10;9.30;99.90
22940;DHT22;11636;52.086;5.090;2023-04-24T10:23:05;9.50;99.90
22940;DHT22;11636;52.086;5.090;2023-04-24T10:25:52;9.50;99.90
22940;DHT22;11636;52.086;5.090;2023-04-24T10:28:47;9.50;99.90
22940;DHT22;11636;52.086;5.090;2023-04-24T10:31:41;9.60;99.90
22940;DHT22;11636;52.086;5.090;2023-04-24T10:34:29;9.70;99.90
22940;DHT22;11636;52.086;5.090;2023-04-24T10:37:24;9.70;99.90
22940;DHT22;11636;52.086;5.090;2023-04-24T10:40:19;9.70;99.90
22940;DHT22;11636;52.086;5.090;2023-04-24T10:43:17;9.80;99.90
22940;DHT22;11636;52.086;5.090;2023-04-24T10:46:19;10.00;99.90
22940;DHT22;11636;52.086;5.090;2023-04-24T10:49:07;10.00;99.90
22940;DHT22;11636;52.086;5.090;2023-04-24T10:52:03;10.00;99.90
22940;DHT22;11636;52.086;5.090;2023-04-24T10:54:52;10.30;99.90
22940;DHT22;11636;52.086;5.090;2023-04-24T10:58:04;10.50;99.90
22940;DHT22;11636;52.086;5.090;2023-04-24T11:00:58;10.40;99.90
22940;DHT22;11636;52.086;5.090;2023-04-24T11:03:58;10.10;99.90
22940;DHT22;11636;52.086;5.090;2023-04-24T11:06:52;10.00;99.90
22940;DHT22;11636;52.086;5.090;2023-04-24T11:09:46;10.00;99.90
22940;DHT22;11636;52.086;5.090;2023-04-24T11:12:40;10.10;99.90
22940;DHT22;11636;52.086;5.090;2023-04-24T11:15:33;10.00;99.90
22940;DHT22;11636;52.086;5.090;2023-04-24T11:18:37;9.80;99.90
22940;DHT22;11636;52.086;5.090;2023-04-24T11:21:32;9.60;99.90
22940;DHT22;11636;52.086;5.090;2023-04-24T11:24:30;9.40;99.90
22940;DHT22;11636;52.086;5.090;2023-04-24T11:27:39;9.00;99.90
22940;DHT22;11636;52.086;5.090;2023-04-24T11:30:29;9.00;99.90
22940;DHT22;11636;52.086;5.090;2023-04-24T11:33:22;9.10;99.90
22940;DHT22;11636;52.086;5.090;2023-04-24T11:36:10;9.40;99.90
22940;DHT22;11636;52.086;5.090;2023-04-24T11:39:04;9.70;99.90
22940;DHT22;11636;52.086;5.090;2023-04-24T11:41:51;10.10;99.90
22940;DHT22;11636;52.086;5.090;2023-04-24T11:44:46;10.60;99.90
22940;DHT22;11636;52.086;5.090;2023-04-24T11:47:34;10.90;99.90
22940;DHT22;11636;52.086;5.090;2023-04-24T11:50:27;10.90;99.90
22940;DHT22;11636;52.086;5.090;2023-04-24T11:53:22;10.70;99.90
22940;DHT22;11636;52.086;5.090;2023-04-24T11:56:21;10.90;99.90
22940;DHT22;11636;52.086;5.090;2023-04-24T11:59:15;11.00;99.90
22940;DHT22;11636;52.086;5.090;2023-04-24T12:02:23;11.20;99.90
22940;DHT22;11636;52.086;5.090;2023-04-24T12:05:24;11.20;99.90
22940;DHT22;11636;52.086;5.090;2023-04-24T12:08:28;11.30;99.90
22940;DHT22;11636;52.086;5.090;2023-04-24T12:11:24;11.20;99.90
22940;DHT22;11636;52.086;5.090;2023-04-24T12:14:19;11.00;99.90
22940;DHT22;11636;52.086;5.090;2023-04-24T12:17:06;10.90;99.90
22940;DHT22;11636;52.086;5.090;2023-04-24T12:20:05;10.80;99.90
22940;DHT22;11636;52.086;5.090;2023-04-24T12:23:00;10.80;99.90
22940;DHT22;11636;52.086;5.090;2023-04-24T12:25:54;10.90;99.90
22940;DHT22;11636;52.086;5.090;2023-04-24T12:28:48;10.70;99.90
22940;DHT22;11636;52.086;5.090;2023-04-24T12:31:43;10.70;99.90
22940;DHT22;11636;52.086;5.090;2023-04-24T12:34:37;10.70;99.90
22940;DHT22;11636;52.086;5.090;2023-04-24T12:37:25;10.70;99.90
22940;DHT22;11636;52.086;5.090;2023-04-24T12:40:21;10.60;99.90
22940;DHT22;11636;52.086;5.090;2023-04-24T12:43:18;10.60;99.90
22940;DHT22;11636;52.086;5.090;2023-04-24T12:46:13;10.50;99.90
22940;DHT22;11636;52.086;5.090;2023-04-24T12:49:03;10.40;99.90
22940;DHT22;11636;52.086;5.090;2023-04-24T12:51:57;10.40;99.90
22940;DHT22;11636;52.086;5.090;2023-04-24T12:54:55;10.30;99.90
22940;DHT22;11636;52.086;5.090;2023-04-24T12:57:50;10.10;99.90
22940;DHT22;11636;52.086;5.090;2023-04-24T13:00:44;9.80;99.90
22940;DHT22;11636;52.086;5.090;2023-04-24T13:03:32;9.60;99.90
22940;DHT22;11636;52.086;5.090;2023-04-24T13:06:26;9.70;99.90
22940;DHT22;11636;52.086;5.090;2023-04-24T13:09:21;10.00;99.90
22940;DHT22;11636;52.086;5.090;2023-04-24T13:12:09;10.50;99.90
22940;DHT22;11636;52.086;5.090;2023-04-24T13:15:05;11.10;99.90
22940;DHT22;11636;52.086;5.090;2023-04-24T13:17:59;11.30;99.90
22940;DHT22;11636;52.086;5.090;2023-04-24T13:20:46;11.30;99.90
22940;DHT22;11636;52.086;5.090;2023-04-24T13:23:41;11.30;99.90
22940;DHT22;11636;52.086;5.090;2023-04-24T13:26:29;11.10;99.90
22940;DHT22;11636;52.086;5.090;2023-04-24T13:29:23;10.90;99.90
22940;DHT22;11636;52.086;5.090;2023-04-24T13:32:10;11.00;99.90
22940;DHT22;11636;52.086;5.090;2023-04-24T13:35:04;11.50;99.90
22940;DHT22;11636;52.086;5.090;2023-04-24T13:37:58;11.90;99.90
22940;DHT22;11636;52.086;5.090;2023-04-24T13:40:52;12.40;99.90
22940;DHT22;11636;52.086;5.090;2023-04-24T13:43:46;12.50;99.90
22940;DHT22;11636;52.086;5.090;2023-04-24T13:46:40;12.40;99.90
22940;DHT22;11636;52.086;5.090;2023-04-24T13:49:34;12.10;99.90
22940;DHT22;11636;52.086;5.090;2023-04-24T13:52:21;11.70;99.90
22940;DHT22;11636;52.086;5.090;2023-04-24T13:55:15;11.90;99.90
22940;DHT22;11636;52.086;5.090;2023-04-24T13:58:02;12.10;99.90
22940;DHT22;11636;52.086;5.090;2023-04-24T14:00:56;11.90;99.90
22940;DHT22;11636;52.086;5.090;2023-04-24T14:03:43;11.80;99.90
22940;DHT22;11636;52.086;5.090;2023-04-24T14:06:37;11.60;99.90
22940;DHT22;11636;52.086;5.090;2023-04-24T14:09:24;11.30;99.90
22940;DHT22;11636;52.086;5.090;2023-04-24T14:12:18;11.10;99.90
22940;DHT22;11636;52.086;5.090;2023-04-24T14:15:13;10.90;99.90
22940;DHT22;11636;52.086;5.090;2023-04-24T14:18:00;10.70;99.90
22940;DHT22;11636;52.086;5.090;2023-04-24T14:20:54;10.60;99.90
22940;DHT22;11636;52.086;5.090;2023-04-24T14:23:41;10.60;99.90
22940;DHT22;11636;52.086;5.090;2023-04-24T14:26:42;10.60;99.90
22940;DHT22;11636;52.086;5.090;2023-04-24T14:29:29;10.70;99.90
22940;DHT22;11636;52.086;5.090;2023-04-24T14:32:29;10.70;99.90
22940;DHT22;11636;52.086;5.090;2023-04-24T14:35:16;10.50;99.90
22940;DHT22;11636;52.086;5.090;2023-04-24T14:38:10;10.40;99.90
22940;DHT22;11636;52.086;5.090;2023-04-24T14:40:57;10.60;99.90
22940;DHT22;11636;52.086;5.090;2023-04-24T14:43:55;10.70;99.90
22940;DHT22;11636;52.086;5.090;2023-04-24T14:46:42;10.90;99.90
22940;DHT22;11636;52.086;5.090;2023-04-24T14:49:36;11.00;99.90
22940;DHT22;11636;52.086;5.090;2023-04-24T14:52:23;11.00;99.90
22940;DHT22;11636;52.086;5.090;2023-04-24T14:55:17;10.90;99.90
22940;DHT22;11636;52.086;5.090;2023-04-24T14:58:04;11.00;99.90
22940;DHT22;11636;52.086;5.090;2023-04-24T15:00:58;11.10;99.90
22940;DHT22;11636;52.086;5.090;2023-04-24T15:03:52;11.10;99.90
22940;DHT22;11636;52.086;5.090;2023-04-24T15:06:39;11.00;99.90
22940;DHT22;11636;52.086;5.090;2023-04-24T15:09:33;10.90;99.90
22940;DHT22;11636;52.086;5.090;2023-04-24T15:12:27;10.80;99.90
22940;DHT22;11636;52.086;5.090;2023-04-24T15:15:22;10.70;99.90
22940;DHT22;11636;52.086;5.090;2023-04-24T15:18:09;10.60;99.90
22940;DHT22;11636;52.086;5.090;2023-04-24T15:21:05;10.60;99.90
22940;DHT22;11636;52.086;5.090;2023-04-24T15:23:52;10.50;99.90
22940;DHT22;11636;52.086;5.090;2023-04-24T15:26:46;10.70;99.90
22940;DHT22;11636;52.086;5.090;2023-04-24T15:29:33;10.70;99.90
22940;DHT22;11636;52.086;5.090;2023-04-24T15:32:27;10.50;99.90
22940;DHT22;11636;52.086;5.090;2023-04-24T15:35:14;10.70;99.90
22940;DHT22;11636;52.086;5.090;2023-04-24T15:38:09;10.70;99.90
22940;DHT22;11636;52.086;5.090;2023-04-24T15:40:56;10.70;99.90
22940;DHT22;11636;52.086;5.090;2023-04-24T15:43:50;10.70;99.90
22940;DHT22;11636;52.086;5.090;2023-04-24T15:46:44;10.70;99.90
22940;DHT22;11636;52.086;5.090;2023-04-24T15:49:38;10.80;99.90
22940;DHT22;11636;52.086;5.090;2023-04-24T15:52:25;10.70;99.90
22940;DHT22;11636;52.086;5.090;2023-04-24T15:55:19;10.70;99.90
22940;DHT22;11636;52.086;5.090;2023-04-24T15:58:06;10.70;99.90
22940;DHT22;11636;52.086;5.090;2023-04-24T16:01:00;10.70;99.90
22940;DHT22;11636;52.086;5.090;2023-04-24T16:03:47;10.60;99.90
22940;DHT22;11636;52.086;5.090;2023-04-24T16:06:41;10.60;99.90
22940;DHT22;11636;52.086;5.090;2023-04-24T16:09:35;10.50;99.90
22940;DHT22;11636;52.086;5.090;2023-04-24T16:12:29;10.60;99.90
22940;DHT22;11636;52.086;5.090;2023-04-24T16:15:23;10.50;99.90
22940;DHT22;11636;52.086;5.090;2023-04-24T16:18:10;10.40;99.90
22940;DHT22;11636;52.086;5.090;2023-04-24T16:21:04;10.50;99.90
22940;DHT22;11636;52.086;5.090;2023-04-24T16:23:51;10.60;99.90
22940;DHT22;11636;52.086;5.090;2023-04-24T16:26:45;10.70;99.90
22940;DHT22;11636;52.086;5.090;2023-04-24T16:29:32;10.60;99.90
22940;DHT22;11636;52.086;5.090;2023-04-24T16:32:26;10.70;99.90
22940;DHT22;11636;52.086;5.090;2023-04-24T16:35:13;10.80;99.90
22940;DHT22;11636;52.086;5.090;2023-04-24T16:38:07;10.70;99.90
22940;DHT22;11636;52.086;5.090;2023-04-24T16:40:54;10.50;99.90
22940;DHT22;11636;52.086;5.090;2023-04-24T16:43:48;10.30;99.90
22940;DHT22;11636;52.086;5.090;2023-04-24T16:46:35;10.20;99.90
22940;DHT22;11636;52.086;5.090;2023-04-24T16:49:29;10.10;99.90
22940;DHT22;11636;52.086;5.090;2023-04-24T16:52:25;10.10;99.90
22940;DHT22;11636;52.086;5.090;2023-04-24T16:55:12;10.00;99.90
22940;DHT22;11636;52.086;5.090;2023-04-24T16:58:06;9.90;99.90
22940;DHT22;11636;52.086;5.090;2023-04-24T17:00:53;9.90;99.90
22940;DHT22;11636;52.086;5.090;2023-04-24T17:03:47;9.90;99.90
22940;DHT22;11636;52.086;5.090;2023-04-24T17:06:41;9.90;99.90
22940;DHT22;11636;52.086;5.090;2023-04-24T17:09:35;10.00;99.90
22940;DHT22;11636;52.086;5.090;2023-04-24T17:12:22;9.90;99.90
22940;DHT22;11636;52.086;5.090;2023-04-24T17:15:16;10.00;99.90
22940;DHT22;11636;52.086;5.090;2023-04-24T17:18:10;9.90;99.90
22940;DHT22;11636;52.086;5.090;2023-04-24T17:21:04;9.80;99.90
22940;DHT22;11636;52.086;5.090;2023-04-24T17:23:58;9.70;99.90
22940;DHT22;11636;52.086;5.090;2023-04-24T17:26:52;9.60;99.90
22940;DHT22;11636;52.086;5.090;2023-04-24T17:29:44;9.50;99.90
22940;DHT22;11636;52.086;5.090;2023-04-24T17:32:38;9.40;99.90
22940;DHT22;11636;52.086;5.090;2023-04-24T17:35:26;9.30;99.90
22940;DHT22;11636;52.086;5.090;2023-04-24T17:38:20;9.30;99.90
22940;DHT22;11636;52.086;5.090;2023-04-24T17:41:14;9.30;99.90
22940;DHT22;11636;52.086;5.090;2023-04-24T17:44:02;9.30;99.90
22940;DHT22;11636;52.086;5.090;2023-04-24T17:46:56;9.20;99.90
22940;DHT22;11636;52.086;5.090;2023-04-24T17:49:43;9.20;99.90
22940;DHT22;11636;52.086;5.090;2023-04-24T17:52:37;9.20;99.90
22940;DHT22;11636;52.086;5.090;2023-04-24T17:55:24;9.20;99.90
22940;DHT22;11636;52.086;5.090;2023-04-24T17:58:18;9.20;99.90
22940;DHT22;11636;52.086;5.090;2023-04-24T18:01:06;9.20;99.90
22940;DHT22;11636;52.086;5.090;2023-04-24T18:03:59;9.20;99.90
22940;DHT22;11636;52.086;5.090;2023-04-24T18:06:47;9.10;99.90
22940;DHT22;11636;52.086;5.090;2023-04-24T18:09:40;9.10;99.90
22940;DHT22;11636;52.086;5.090;2023-04-24T18:12:27;9.10;99.90
22940;DHT22;11636;52.086;5.090;2023-04-24T18:15:21;9.00;99.90
22940;DHT22;11636;52.086;5.090;2023-04-24T18:18:09;8.90;99.90
22940;DHT22;11636;52.086;5.090;2023-04-24T18:21:03;8.80;99.90
22940;DHT22;11636;52.086;5.090;2023-04-24T18:23:50;8.70;99.90